Time;durP1;ratioP1;P1;durP2;ratioP2;P2;SDS_P1;SDS_P2;PMS_P1;PMS_P2;Temp;Humidity;BMP_temperature;BMP_pressure;BME280_temperature;BME280_humidity;BME280_pressure;Samples;Min_cycle;Max_cycle;Signal;HPM_P1;HPM_P2
2021/09/17 00:01:36;;;;;;;8.63;3.75;;;;;;;14.25;78.01;100266.91;1761330;81;21014;-79
2021/09/17 00:04:02;;;;;;;9.05;3.47;;;;;;;14.24;78.02;100268.77;1761249;81;21011;-79
2021/09/17 00:06:28;;;;;;;5.10;3.87;;;;;;;14.24;78.03;100267.93;1761534;81;20999;-79
2021/09/17 00:08:54;;;;;;;9.50;4.85;;;;;;;14.24;78.03;100266.59;1761422;81;21062;-79
2021/09/17 00:11:21;;;;;;;7.42;4.55;;;;;;;14.23;78.03;100269.78;1761618;81;21065;-80
2021/09/17 00:13:47;;;;;;;6.33;3.47;;;;;;;14.23;78.03;100261.73;1761566;81;21162;-79
2021/09/17 00:16:13;;;;;;;7.17;3.85;;;;;;;14.23;78.05;100263.08;1761456;81;21507;-79
2021/09/17 00:18:39;;;;;;;7.60;3.95;;;;;;;14.23;78.05;100255.03;1761135;81;21802;-79
2021/09/17 00:21:05;;;;;;;13.70;4.62;;;;;;;14.22;78.07;100250.67;1761825;81;20950;-79
2021/09/17 00:23:31;;;;;;;12.37;4.87;;;;;;;14.23;78.07;100248.32;1761085;81;21555;-79
2021/09/17 00:25:57;;;;;;;9.75;6.12;;;;;;;14.23;78.07;100251.00;1761410;81;21948;-79
2021/09/17 00:28:23;;;;;;;8.73;5.50;;;;;;;14.24;78.08;100251.33;1761391;81;20994;-80
2021/09/17 00:30:49;;;;;;;6.55;3.90;;;;;;;14.24;78.09;100248.64;1761339;81;21010;-79
2021/09/17 00:33:15;;;;;;;6.20;3.72;;;;;;;14.24;78.10;100249.98;1761358;81;21014;-80
2021/09/17 00:35:41;;;;;;;10.50;4.85;;;;;;;14.24;78.12;100249.98;1761567;81;21074;-79
2021/09/17 00:38:07;;;;;;;7.12;4.87;;;;;;;14.26;78.11;100247.09;1761592;81;21077;-79
2021/09/17 00:40:33;;;;;;;9.73;5.58;;;;;;;14.24;78.12;100249.98;1761406;81;21467;-79
2021/09/17 00:42:59;;;;;;;9.90;4.67;;;;;;;14.25;78.13;100244.91;1761474;81;21533;-79
2021/09/17 00:45:25;;;;;;;6.95;3.98;;;;;;;14.24;78.14;100244.63;1761660;81;21002;-79
2021/09/17 00:47:51;;;;;;;12.35;5.08;;;;;;;14.24;78.15;100241.94;1761297;81;21018;-79
2021/09/17 00:50:20;;;;;;;6.05;3.87;;;;;;;14.25;78.17;100246.80;1761449;81;21145;-79
2021/09/17 00:52:47;;;;;;;7.83;4.42;;;;;;;14.25;78.19;100236.87;1761194;81;21014;-79
2021/09/17 00:55:13;;;;;;;7.45;4.95;;;;;;;14.24;78.20;100243.28;1761647;81;21530;-79
2021/09/17 00:57:39;;;;;;;6.37;3.70;;;;;;;14.24;78.20;100244.63;1761293;81;21616;-79
2021/09/17 01:00:09;;;;;;;9.48;3.80;;;;;;;14.25;78.22;100242.23;1757083;81;21026;-79
2021/09/17 01:02:35;;;;;;;7.72;3.75;;;;;;;14.23;78.25;100240.78;1761447;81;21184;-79
2021/09/17 01:05:02;;;;;;;11.18;4.30;;;;;;;14.23;78.23;100240.27;1761108;81;21049;-79
2021/09/17 01:07:28;;;;;;;8.43;3.98;;;;;;;14.22;78.26;100239.95;1761485;81;21519;-80
2021/09/17 01:09:54;;;;;;;11.45;5.08;;;;;;;14.22;78.28;100235.09;1761332;81;21623;-79
2021/09/17 01:12:20;;;;;;;13.72;6.90;;;;;;;14.21;78.32;100234.30;1757167;81;21034;-79
2021/09/17 01:14:46;;;;;;;7.90;5.40;;;;;;;14.22;78.32;100237.78;1761252;81;21388;-79
2021/09/17 01:17:12;;;;;;;7.15;4.33;;;;;;;14.20;78.33;100229.94;1760986;81;21010;-79
2021/09/17 01:19:38;;;;;;;6.10;4.30;;;;;;;14.20;78.34;100229.94;1761475;81;21010;-79
2021/09/17 01:22:08;;;;;;;13.32;4.25;;;;;;;14.20;78.36;100235.81;1761400;81;21018;-79
2021/09/17 01:24:35;;;;;;;16.07;3.62;;;;;;;14.19;78.40;100230.13;1761588;81;21076;-79
2021/09/17 01:27:01;;;;;;;7.15;4.08;;;;;;;14.19;78.41;100222.91;1761456;81;21166;-79
2021/09/17 01:29:27;;;;;;;5.65;3.27;;;;;;;14.21;78.43;100226.25;1761485;81;21065;-79
2021/09/17 01:31:53;;;;;;;7.60;3.30;;;;;;;14.21;78.45;100223.56;1761018;81;21515;-79
2021/09/17 01:34:21;;;;;;;6.90;3.85;;;;;;;14.20;78.45;100223.75;1761510;81;21045;-79
2021/09/17 01:36:47;;;;;;;5.70;3.50;;;;;;;14.19;78.48;100221.58;1761412;81;21077;-79
2021/09/17 01:39:13;;;;;;;7.28;3.70;;;;;;;14.19;78.49;100214.03;1761406;81;21152;-79
2021/09/17 01:41:40;;;;;;;6.20;3.40;;;;;;;14.18;78.51;100217.22;1761663;81;21101;-79
2021/09/17 01:44:06;;;;;;;6.35;3.60;;;;;;;14.17;78.55;100216.94;1761522;81;21487;-79
2021/09/17 01:46:32;;;;;;;7.75;3.45;;;;;;;14.18;78.58;100215.88;1761402;81;21446;-79
2021/09/17 01:48:58;;;;;;;7.20;4.33;;;;;;;14.19;78.59;100220.23;1761513;81;21053;-79
2021/09/17 01:51:24;;;;;;;7.72;4.90;;;;;;;14.20;78.62;100212.52;1761476;81;21137;-79
2021/09/17 01:53:50;;;;;;;10.00;5.25;;;;;;;14.19;78.63;100208.16;1761413;81;21106;-79
2021/09/17 01:56:16;;;;;;;9.48;5.22;;;;;;;14.20;78.67;100203.13;1761401;81;21150;-79
2021/09/17 01:58:43;;;;;;;9.28;5.60;;;;;;;14.21;78.69;100199.94;1761099;81;21002;-79
2021/09/17 02:01:09;;;;;;;8.50;6.08;;;;;;;14.20;78.70;100200.44;1761426;81;21041;-79
2021/09/17 02:03:35;;;;;;;13.18;6.50;;;;;;;14.22;78.74;100200.22;1761358;81;21158;-79
2021/09/17 02:06:01;;;;;;;9.88;5.12;;;;;;;14.21;78.75;100202.61;1760793;81;21061;-79
2021/09/17 02:08:27;;;;;;;6.25;4.30;;;;;;;14.20;78.78;100199.61;1761599;81;21049;-79
2021/09/17 02:10:53;;;;;;;7.53;4.62;;;;;;;14.19;78.79;100197.44;1761246;81;21491;-79
2021/09/17 02:13:21;;;;;;;7.58;4.62;;;;;;;14.19;78.82;100192.07;1761587;81;21100;-80
2021/09/17 02:15:48;;;;;;;5.50;4.20;;;;;;;14.19;78.85;100185.36;1761412;81;21066;-79
2021/09/17 02:18:15;;;;;;;5.55;4.05;;;;;;;14.18;78.87;100189.06;1761092;81;21026;-79
2021/09/17 02:20:41;;;;;;;7.65;4.67;;;;;;;14.18;78.88;100187.72;1761360;81;21049;-79
2021/09/17 02:23:07;;;;;;;8.60;5.08;;;;;;;14.17;78.91;100182.06;1761097;81;21049;-79
2021/09/17 02:25:33;;;;;;;7.12;4.90;;;;;;;14.18;78.95;100185.04;1761634;81;21065;-79
2021/09/17 02:27:59;;;;;;;12.98;7.00;;;;;;;14.17;78.96;100182.06;1761209;81;21077;-79
2021/09/17 02:30:25;;;;;;;13.72;5.67;;;;;;;14.17;78.99;100182.06;1761514;81;20999;-79
2021/09/17 02:32:51;;;;;;;9.83;4.75;;;;;;;14.16;79.01;100183.08;1761382;81;20914;-79
2021/09/17 02:35:17;;;;;;;10.40;4.33;;;;;;;14.16;79.04;100174.20;1761643;81;21014;-79
2021/09/17 02:37:43;;;;;;;8.78;5.28;;;;;;;14.15;79.07;100177.39;1761526;81;21077;-79
2021/09/17 02:40:11;;;;;;;8.60;5.25;;;;;;;14.15;79.09;100177.91;1761487;81;21092;-80
2021/09/17 02:42:37;;;;;;;7.75;5.47;;;;;;;14.14;79.12;100171.73;1761508;81;21018;-80
2021/09/17 02:45:05;;;;;;;15.30;6.95;;;;;;;14.15;79.17;100173.38;1761529;81;21509;-79
2021/09/17 02:47:31;;;;;;;13.45;5.70;;;;;;;14.14;79.19;100173.08;1761658;81;21552;-79
2021/09/17 02:49:57;;;;;;;9.78;5.80;;;;;;;14.14;79.21;100173.59;1761346;81;21065;-79
2021/09/17 02:52:24;;;;;;;6.47;4.75;;;;;;;14.12;79.23;100171.09;1761566;81;21120;-79
2021/09/17 02:54:50;;;;;;;7.65;4.78;;;;;;;14.14;79.24;100171.73;1761507;81;21002;-79
2021/09/17 02:57:17;;;;;;;11.28;4.92;;;;;;;14.13;79.29;100167.39;1761549;81;21085;-79
2021/09/17 02:59:43;;;;;;;8.13;4.45;;;;;;;14.13;79.30;100162.03;1761208;81;20994;-79
2021/09/17 03:02:09;;;;;;;7.75;4.35;;;;;;;14.13;79.33;100163.88;1761774;81;21523;-80
2021/09/17 03:04:35;;;;;;;7.65;5.30;;;;;;;14.11;79.35;100164.06;1758371;81;21655;-79
2021/09/17 03:07:02;;;;;;;7.58;5.10;;;;;;;14.11;79.36;100162.72;1752371;81;21562;-79
2021/09/17 03:09:28;;;;;;;14.28;5.45;;;;;;;14.10;79.41;100162.43;1753031;81;21062;-79
2021/09/17 03:11:54;;;;;;;9.38;5.15;;;;;;;14.10;79.40;100164.28;1752759;81;21011;-79
2021/09/17 03:14:20;;;;;;;10.60;4.53;;;;;;;14.09;79.46;100159.94;1752884;81;21133;-79
2021/09/17 03:16:46;;;;;;;5.55;4.10;;;;;;;14.08;79.47;100159.10;1752684;81;22211;-79
2021/09/17 03:19:12;;;;;;;6.47;4.50;;;;;;;14.07;79.50;100158.81;1752735;81;21038;-79
2021/09/17 03:21:38;;;;;;;6.95;5.50;;;;;;;14.07;79.53;100157.47;1752938;81;21105;-79
2021/09/17 03:24:04;;;;;;;10.48;6.15;;;;;;;14.06;79.55;100152.29;1752902;81;20999;-79
2021/09/17 03:26:30;;;;;;;10.25;5.17;;;;;;;14.06;79.58;100159.83;1753085;81;20931;-79
2021/09/17 03:28:56;;;;;;;6.28;4.58;;;;;;;14.07;79.62;100149.42;1752818;81;21060;-79
2021/09/17 03:31:22;;;;;;;7.22;4.65;;;;;;;14.06;79.63;100150.44;1752817;81;21034;-80
2021/09/17 03:33:49;;;;;;;6.05;4.22;;;;;;;14.05;79.66;100149.28;1752904;81;21034;-80
2021/09/17 03:36:15;;;;;;;8.65;5.30;;;;;;;14.05;79.70;100150.12;1752779;81;21054;-79
2021/09/17 03:38:41;;;;;;;9.90;5.70;;;;;;;14.04;79.73;100147.11;1753083;81;21007;-79
2021/09/17 03:41:07;;;;;;;10.85;6.28;;;;;;;14.04;79.75;100151.13;1752987;81;21538;-79
2021/09/17 03:43:33;;;;;;;16.57;6.85;;;;;;;14.04;79.80;100144.43;1752905;80;21436;-80
2021/09/17 03:45:59;;;;;;;11.40;7.47;;;;;;;14.04;79.84;100147.66;1752686;81;21062;-79
2021/09/17 03:48:26;;;;;;;8.33;4.70;;;;;;;14.02;79.86;100146.49;1752946;81;21011;-79
2021/09/17 03:50:52;;;;;;;7.85;4.17;;;;;;;14.02;79.88;100143.81;1752853;81;21062;-79
2021/09/17 03:53:18;;;;;;;10.93;5.47;;;;;;;14.03;79.91;100149.50;1752874;81;21121;-80
2021/09/17 03:55:44;;;;;;;7.90;4.75;;;;;;;14.02;79.94;100146.49;1752985;81;20999;-79
2021/09/17 03:58:10;;;;;;;9.70;4.67;;;;;;;14.02;79.97;100149.17;1752629;81;21002;-79
2021/09/17 04:00:36;;;;;;;8.33;6.10;;;;;;;14.02;79.99;100147.84;1753017;81;21542;-79
2021/09/17 04:03:03;;;;;;;9.00;5.75;;;;;;;14.01;80.02;100150.20;1752936;81;21311;-79
2021/09/17 04:05:31;;;;;;;8.28;5.10;;;;;;;14.02;80.04;100150.52;1757598;81;21025;-79
2021/09/17 04:07:57;;;;;;;6.95;4.95;;;;;;;14.02;80.06;100146.49;1761343;81;21034;-79
2021/09/17 04:10:23;;;;;;;7.33;5.08;;;;;;;14.02;80.08;100151.86;1761437;81;21045;-80
2021/09/17 04:12:49;;;;;;;8.23;4.97;;;;;;;14.00;80.13;100145.87;1761472;81;21495;-79
2021/09/17 04:15:16;;;;;;;8.90;4.67;;;;;;;14.00;80.18;100146.68;1761306;81;21574;-79
2021/09/17 04:17:43;;;;;;;7.90;4.78;;;;;;;14.01;80.22;100151.53;1761163;80;21112;-79
2021/09/17 04:20:10;;;;;;;9.33;5.62;;;;;;;14.01;80.24;100147.52;1761154;81;21034;-79
2021/09/17 04:22:36;;;;;;;14.03;6.95;;;;;;;14.00;80.28;100140.52;1761570;81;20970;-80
2021/09/17 04:25:05;;;;;;;13.90;7.60;;;;;;;14.01;80.32;100146.17;1761099;81;21007;-80
2021/09/17 04:27:31;;;;;;;12.28;6.20;;;;;;;14.03;80.32;100141.97;1761557;81;21025;-79
2021/09/17 04:29:57;;;;;;;11.38;6.25;;;;;;;14.04;80.36;100143.09;1761275;81;21110;-79
2021/09/17 04:32:23;;;;;;;12.63;6.37;;;;;;;14.05;80.40;100143.41;1761480;81;20998;-79
2021/09/17 04:34:49;;;;;;;11.73;6.12;;;;;;;14.05;80.40;100140.73;1761531;81;21014;-79
2021/09/17 04:37:15;;;;;;;11.00;6.05;;;;;;;14.06;80.43;100138.38;1761387;81;20943;-79
2021/09/17 04:39:41;;;;;;;13.08;6.42;;;;;;;14.07;80.50;100141.38;1761602;81;21055;-79
2021/09/17 04:42:07;;;;;;;12.47;6.58;;;;;;;14.07;80.53;100144.57;1761342;81;21072;-79
2021/09/17 04:44:33;;;;;;;10.05;6.92;;;;;;;14.06;80.55;100134.35;1761284;81;21288;-79
2021/09/17 04:46:59;;;;;;;11.18;6.53;;;;;;;14.07;80.58;100134.67;1761480;80;21038;-79
2021/09/17 04:49:25;;;;;;;13.70;6.95;;;;;;;14.06;80.62;100135.69;1761398;81;21069;-80
2021/09/17 04:51:51;;;;;;;14.58;6.08;;;;;;;14.06;80.66;100133.02;1761430;81;21023;-79
2021/09/17 04:54:17;;;;;;;13.85;7.35;;;;;;;14.05;80.70;100138.05;1761068;81;21133;-79
2021/09/17 04:56:43;;;;;;;12.60;5.87;;;;;;;14.07;80.74;100146.74;1761516;81;21034;-79
2021/09/17 04:59:10;;;;;;;13.75;6.92;;;;;;;14.08;80.76;100138.16;1761326;81;21049;-80
2021/09/17 05:01:37;;;;;;;9.80;5.70;;;;;;;14.10;80.81;100145.51;1761680;81;21113;-80
2021/09/17 05:04:03;;;;;;;15.65;5.87;;;;;;;14.11;80.86;100142.61;1761427;81;21006;-79
2021/09/17 05:06:31;;;;;;;11.08;5.60;;;;;;;14.13;80.91;100140.58;1761222;81;21666;-79
2021/09/17 05:08:58;;;;;;;9.73;5.28;;;;;;;14.15;80.94;100147.06;1761403;81;21069;-79
2021/09/17 05:11:24;;;;;;;9.48;5.42;;;;;;;14.16;80.99;100145.53;1761719;81;21018;-79
2021/09/17 05:13:50;;;;;;;9.20;5.28;;;;;;;14.19;81.01;100150.50;1761394;81;21523;-79
2021/09/17 05:16:16;;;;;;;9.85;5.30;;;;;;;14.20;81.06;100138.75;1761414;81;21487;-79
2021/09/17 05:18:43;;;;;;;6.58;5.03;;;;;;;14.22;81.09;100142.05;1761233;81;21139;-79
2021/09/17 05:21:11;;;;;;;7.55;4.87;;;;;;;14.24;81.12;100142.69;1761461;81;21006;-79
2021/09/17 05:23:36;;;;;;;7.67;5.25;;;;;;;14.28;81.15;100143.95;1761201;81;21132;-79
2021/09/17 05:26:03;;;;;;;8.05;4.28;;;;;;;14.29;81.15;100148.27;1761487;81;21053;-79
2021/09/17 05:28:30;;;;;;;7.47;4.67;;;;;;;14.32;81.18;100150.55;1761382;81;21022;-79
2021/09/17 05:30:56;;;;;;;7.50;5.00;;;;;;;14.36;81.21;100140.27;1761469;81;21499;-79
2021/09/17 05:33:22;;;;;;;9.80;4.70;;;;;;;14.36;81.19;100145.13;1761139;81;20994;-79
2021/09/17 05:35:48;;;;;;;7.33;4.50;;;;;;;14.38;81.21;100146.28;1761506;81;21050;-79
2021/09/17 05:38:14;;;;;;;9.95;4.50;;;;;;;14.37;81.21;100148.14;1761136;81;21042;-79
2021/09/17 05:40:40;;;;;;;9.20;4.97;;;;;;;14.41;81.22;100151.25;1761427;81;21014;-79
2021/09/17 05:43:06;;;;;;;12.10;4.35;;;;;;;14.42;81.23;100144.86;1761356;81;21154;-79
2021/09/17 05:45:32;;;;;;;8.85;4.78;;;;;;;14.44;81.25;100147.65;1761224;81;20998;-80
2021/09/17 05:47:59;;;;;;;7.97;4.92;;;;;;;14.46;81.27;100149.60;1761452;81;21463;-79
2021/09/17 05:50:25;;;;;;;5.95;4.17;;;;;;;14.48;81.26;100147.56;1761681;81;21018;-79
2021/09/17 05:52:51;;;;;;;6.53;4.20;;;;;;;14.52;81.27;100149.84;1761657;81;21487;-79
2021/09/17 05:55:17;;;;;;;6.35;4.22;;;;;;;14.54;81.25;100148.60;1761353;81;21696;-79
2021/09/17 05:57:43;;;;;;;7.17;4.47;;;;;;;14.55;81.27;100146.23;1761306;81;21058;-80
2021/09/17 06:00:10;;;;;;;11.93;4.75;;;;;;;14.56;81.25;100143.88;1761296;81;21005;-80
2021/09/17 06:02:36;;;;;;;7.12;4.87;;;;;;;14.58;81.27;100144.48;1761221;81;21046;-80
2021/09/17 06:05:03;;;;;;;9.63;4.37;;;;;;;14.61;81.26;100137.88;1760514;81;21550;-80
2021/09/17 06:07:29;;;;;;;9.63;4.62;;;;;;;14.64;81.24;100148.20;1752487;81;21194;-80
2021/09/17 06:09:55;;;;;;;6.37;4.20;;;;;;;14.65;81.24;100140.48;1752785;81;21062;-80
2021/09/17 06:12:21;;;;;;;10.08;4.42;;;;;;;14.67;81.23;100147.83;1752362;81;21014;-80
2021/09/17 06:14:47;;;;;;;7.10;4.00;;;;;;;14.69;81.22;100147.10;1752952;81;20895;-80
2021/09/17 06:17:13;;;;;;;8.20;4.53;;;;;;;14.70;81.21;100143.40;1752714;81;21053;-80
2021/09/17 06:19:40;;;;;;;5.75;3.90;;;;;;;14.74;81.21;100152.70;1752563;81;21765;-80
2021/09/17 06:22:06;;;;;;;5.55;3.98;;;;;;;14.73;81.21;100150.53;1752458;81;21058;-80
2021/09/17 06:24:32;;;;;;;6.78;4.50;;;;;;;14.74;81.20;100148.67;1752731;81;20987;-80
2021/09/17 06:26:58;;;;;;;13.48;3.77;;;;;;;14.75;81.19;100152.48;1752794;81;21006;-80
2021/09/17 06:29:24;;;;;;;8.65;3.67;;;;;;;14.79;81.20;100156.93;1752657;81;21007;-80
2021/09/17 06:31:50;;;;;;;8.08;4.00;;;;;;;14.79;81.04;100155.59;1752918;81;21112;-80
2021/09/17 06:34:16;;;;;;;10.18;4.83;;;;;;;14.79;81.19;100151.05;1752614;81;21022;-80
2021/09/17 06:36:42;;;;;;;5.80;4.05;;;;;;;14.78;81.16;100155.27;1752798;81;21117;-80
2021/09/17 06:39:08;;;;;;;6.78;4.20;;;;;;;14.78;81.18;100153.92;1752874;81;21003;-80
2021/09/17 06:41:34;;;;;;;7.10;4.15;;;;;;;14.80;81.19;100154.57;1752533;81;21090;-80
2021/09/17 06:44:00;;;;;;;9.30;4.67;;;;;;;14.82;81.20;100151.15;1752689;80;21090;-80
2021/09/17 06:46:26;;;;;;;11.05;4.30;;;;;;;14.86;81.23;100149.72;1752620;81;21022;-80
2021/09/17 06:48:52;;;;;;;7.78;3.90;;;;;;;14.90;81.21;100149.63;1752898;81;21491;-80
2021/09/17 06:51:18;;;;;;;7.42;4.37;;;;;;;14.95;81.22;100144.48;1752708;81;21456;-80
2021/09/17 06:53:44;;;;;;;10.18;4.30;;;;;;;15.03;81.21;100141.58;1752895;81;21010;-80
2021/09/17 06:56:11;;;;;;;11.83;4.83;;;;;;;15.15;81.34;100140.47;1751546;81;21833;-80
2021/09/17 06:58:38;;;;;;;10.72;4.45;;;;;;;15.15;81.34;100140.47;1752423;81;21062;-80
2021/09/17 07:01:04;;;;;;;12.73;4.33;;;;;;;15.02;81.11;100115.78;1752873;81;20998;-80
2021/09/17 07:03:30;;;;;;;9.88;4.62;;;;;;;15.24;81.12;100139.22;1752822;81;21546;-80
2021/09/17 07:05:56;;;;;;;5.53;3.67;;;;;;;15.54;81.19;100139.67;1754845;81;21037;-80
2021/09/17 07:08:22;;;;;;;6.58;4.30;;;;;;;15.54;81.19;100139.67;1758760;81;21134;-80
2021/09/17 07:10:49;;;;;;;13.10;3.85;;;;;;;15.75;80.86;100142.13;1758921;81;21066;-80
2021/09/17 07:13:15;;;;;;;7.00;3.45;;;;;;;15.96;80.92;100148.08;1758675;81;21022;-80
2021/09/17 07:15:41;;;;;;;5.67;2.95;;;;;;;16.07;80.83;100138.53;1758863;81;21042;-80
2021/09/17 07:18:07;;;;;;;7.17;3.27;;;;;;;16.09;80.72;100136.95;1758880;81;21014;-80
2021/09/17 07:20:34;;;;;;;5.60;3.42;;;;;;;16.08;80.59;100140.16;1758816;81;21126;-80
2021/09/17 07:23:00;;;;;;;7.00;3.67;;;;;;;16.07;80.48;100141.22;1758879;81;21046;-80
2021/09/17 07:25:26;;;;;;;8.88;3.72;;;;;;;16.12;80.39;100140.05;1758871;81;21018;-80
2021/09/17 07:27:53;;;;;;;8.45;4.53;;;;;;;16.18;80.29;100136.53;1758821;81;20879;-80
2021/09/17 07:30:19;;;;;;;9.33;4.03;;;;;;;16.20;80.15;100138.48;1758658;81;21089;-80
2021/09/17 07:32:45;;;;;;;5.55;3.45;;;;;;;16.24;80.04;100136.19;1758741;81;21519;-80
2021/09/17 07:35:11;;;;;;;4.67;3.15;;;;;;;16.26;79.93;100140.83;1758726;81;21486;-80
2021/09/17 07:37:37;;;;;;;8.08;3.05;;;;;;;16.32;79.80;100136.78;1758779;81;21046;-80
2021/09/17 07:40:05;;;;;;;14.73;3.12;;;;;;;16.31;79.61;100141.85;1758890;81;20982;-80
2021/09/17 07:42:31;;;;;;;5.67;2.55;;;;;;;16.33;79.49;100144.31;1758644;81;21014;-80
2021/09/17 07:44:57;;;;;;;4.70;2.72;;;;;;;16.38;79.40;100138.62;1758848;80;21807;-80
2021/09/17 07:47:23;;;;;;;9.23;3.52;;;;;;;16.40;79.25;100137.04;1758389;81;21038;-80
2021/09/17 07:49:49;;;;;;;6.37;2.72;;;;;;;16.37;79.09;100145.03;1758771;81;21014;-80
2021/09/17 07:52:15;;;;;;;5.72;2.50;;;;;;;16.34;78.99;100144.11;1758790;81;20990;-80
2021/09/17 07:54:41;;;;;;;6.20;2.83;;;;;;;16.41;78.93;100148.95;1758867;81;21007;-80
2021/09/17 07:57:07;;;;;;;7.90;2.60;;;;;;;16.43;78.79;100144.16;1758327;81;21146;-80
2021/09/17 07:59:34;;;;;;;8.70;2.58;;;;;;;16.50;78.70;100146.31;1758559;81;21057;-80
2021/09/17 08:02:00;;;;;;;5.05;2.20;;;;;;;16.86;78.70;100139.52;1758781;81;21034;-80
2021/09/17 08:04:26;;;;;;;5.95;2.20;;;;;;;17.13;78.42;100135.63;1758715;81;21006;-80
2021/09/17 08:06:52;;;;;;;6.00;2.55;;;;;;;17.28;78.15;100142.84;1754971;81;21089;-80
2021/09/17 08:09:18;;;;;;;3.83;2.20;;;;;;;17.52;78.00;100140.38;1752799;81;21160;-80
2021/09/17 08:11:44;;;;;;;6.70;2.10;;;;;;;17.74;77.72;100137.58;1752763;81;21027;-80
2021/09/17 08:14:10;;;;;;;5.42;1.85;;;;;;;17.83;77.45;100137.61;1752620;81;20919;-80
2021/09/17 08:16:36;;;;;;;5.20;2.15;;;;;;;17.78;77.13;100136.09;1752930;81;21055;-80
2021/09/17 08:19:03;;;;;;;4.22;2.10;;;;;;;17.68;76.82;100139.83;1753071;81;21613;-80
2021/09/17 08:21:30;;;;;;;15.38;2.00;;;;;;;17.52;76.59;100148.47;1752970;81;21140;-80
2021/09/17 08:23:56;;;;;;;6.15;3.65;;;;;;;17.39;76.44;100145.34;1752865;81;21058;-80
2021/09/17 08:26:22;;;;;;;5.47;2.58;;;;;;;17.26;76.31;100146.29;1752749;81;21011;-80
2021/09/17 08:28:48;;;;;;;3.77;1.70;;;;;;;17.26;76.20;100143.59;1752879;81;21045;-80
2021/09/17 08:31:14;;;;;;;9.60;1.92;;;;;;;17.31;76.06;100149.69;1752900;81;20999;-80
2021/09/17 08:33:40;;;;;;;4.45;2.10;;;;;;;17.29;75.89;100143.67;1753063;81;21096;-80
2021/09/17 08:36:07;;;;;;;6.12;1.65;;;;;;;17.31;75.77;100149.13;1752742;81;21007;-80
2021/09/17 08:38:33;;;;;;;1.77;1.52;;;;;;;17.36;75.55;100142.58;1752836;81;21423;-80
2021/09/17 08:40:59;;;;;;;2.50;1.40;;;;;;;17.43;75.39;100143.34;1752864;81;21015;-80
2021/09/17 08:43:25;;;;;;;6.97;2.12;;;;;;;17.61;75.26;100144.46;1752745;81;21078;-80
2021/09/17 08:45:51;;;;;;;3.50;1.57;;;;;;;17.78;75.04;100141.49;1752912;81;21178;-80
2021/09/17 08:48:18;;;;;;;4.78;2.02;;;;;;;17.73;74.79;100137.30;1752726;81;20991;-80
2021/09/17 08:50:44;;;;;;;2.55;1.60;;;;;;;17.66;74.59;100144.09;1691790;81;21035;-80
2021/09/17 08:53:11;;;;;;;4.90;2.22;;;;;;;17.67;74.49;100146.27;1752951;81;21026;-80
2021/09/17 08:55:37;;;;;;;5.00;1.85;;;;;;;17.71;74.31;100133.98;1723299;81;21483;-80
2021/09/17 08:58:03;;;;;;;5.17;1.87;;;;;;;17.80;74.12;100139.41;1752565;81;21132;-80
2021/09/17 09:00:35;;;;;;;7.55;1.77;;;;;;;17.87;73.94;100144.22;1752696;81;21039;-80
2021/09/17 09:03:01;;;;;;;6.37;1.70;;;;;;;17.94;73.74;100138.23;1753060;81;20990;-79
2021/09/17 09:05:33;;;;;;;6.25;2.00;;;;;;;18.03;73.57;100138.22;1752792;81;21019;-80
2021/09/17 09:08:00;;;;;;;4.83;1.82;;;;;;;17.95;73.18;100135.28;1760776;81;21061;-80
2021/09/17 09:10:26;;;;;;;3.40;1.82;;;;;;;17.84;72.94;100136.55;1761407;81;21089;-80
2021/09/17 09:12:54;;;;;;;8.13;1.85;;;;;;;17.79;72.74;100139.11;1761441;81;21066;-80
2021/09/17 09:15:26;;;;;;;3.75;1.32;;;;;;;17.70;72.61;100140.42;1754372;81;21038;-80
2021/09/17 09:18:00;;;;;;;8.18;2.00;;;;;;;17.61;72.46;100145.81;1761414;81;21392;-79
2021/09/17 09:20:35;;;;;;;4.45;1.52;;;;;;;17.52;72.34;100141.73;1760426;81;20994;-80
2021/09/17 09:23:18;;;;;;;4.55;1.67;;;;;;;17.45;72.17;100137.20;1760866;81;21319;-80
2021/09/17 09:26:06;;;;;;;3.42;1.62;;;;;;;17.41;71.99;100144.10;1761339;81;21506;-80
2021/09/17 09:28:36;;;;;;;5.37;1.92;;;;;;;17.52;71.90;100144.42;1761711;81;21530;-80
2021/09/17 09:31:14;;;;;;;4.83;2.00;;;;;;;17.57;71.75;100135.99;1761017;81;21518;-80
2021/09/17 09:33:42;;;;;;;3.35;1.75;;;;;;;17.63;71.68;100132.91;1761364;81;21038;-80
2021/09/17 09:36:12;;;;;;;3.40;1.80;;;;;;;17.65;71.49;100139.77;1761268;81;21494;-80
2021/09/17 09:38:55;;;;;;;4.97;2.10;;;;;;;17.62;71.39;100136.16;1761488;80;21483;-80
2021/09/17 09:41:28;;;;;;;3.75;2.05;;;;;;;17.64;71.32;100139.97;1761310;81;21046;-80
2021/09/17 09:44:05;;;;;;;5.53;1.95;;;;;;;17.67;71.22;100135.48;1760673;81;21066;-80
2021/09/17 09:46:39;;;;;;;3.25;1.37;;;;;;;17.60;71.09;100143.63;1761132;81;21062;-80
2021/09/17 09:49:24;;;;;;;1.65;1.00;;;;;;;17.38;71.05;100145.86;1761415;81;21551;-80
2021/09/17 09:52:06;;;;;;;5.65;1.15;;;;;;;17.24;71.02;100138.13;1736587;81;20966;-80
2021/09/17 09:54:35;;;;;;;1.15;0.90;;;;;;;17.13;70.99;100138.83;1761536;81;21081;-80
2021/09/17 09:57:03;;;;;;;1.75;1.00;;;;;;;17.11;70.97;100137.69;1761311;81;21065;-80
2021/09/17 09:59:31;;;;;;;2.45;1.40;;;;;;;17.13;70.92;100138.83;1761123;81;21054;-80
2021/09/17 10:02:00;;;;;;;1.75;1.07;;;;;;;17.21;70.91;100143.41;1761510;81;21823;-80
2021/09/17 10:04:29;;;;;;;2.87;1.70;;;;;;;17.27;70.84;100141.21;1761280;81;21045;-80
2021/09/17 10:07:04;;;;;;;19.27;1.92;;;;;;;17.26;70.71;100134.16;1760565;81;21021;-79
2021/09/17 10:09:36;;;;;;;1.32;0.82;;;;;;;17.28;70.62;100140.14;1758731;81;21082;-80
2021/09/17 10:12:09;;;;;;;3.52;0.82;;;;;;;17.23;70.54;100144.55;1758862;81;21535;-80
2021/09/17 10:14:35;;;;;;;2.17;0.70;;;;;;;17.25;70.53;100137.89;1758690;81;21835;-80
2021/09/17 10:17:09;;;;;;;1.82;0.80;;;;;;;17.28;70.49;100144.70;1758716;81;21025;-80
2021/09/17 10:19:36;;;;;;;3.27;1.47;;;;;;;17.32;70.41;100135.14;1758438;81;21077;-80
2021/09/17 10:22:04;;;;;;;3.10;0.88;;;;;;;17.37;70.38;100138.84;1733366;81;21557;-80
2021/09/17 10:24:39;;;;;;;1.62;0.90;;;;;;;17.42;70.31;100134.94;1758530;81;21602;-80
2021/09/17 10:27:13;;;;;;;3.20;0.80;;;;;;;17.48;70.24;100131.91;1758629;81;21066;-80
2021/09/17 10:29:56;;;;;;;3.60;1.00;;;;;;;17.62;70.18;100127.24;1758682;81;21002;-80
2021/09/17 10:32:44;;;;;;;2.55;1.00;;;;;;;17.72;70.07;100124.86;1758698;81;21491;-80
2021/09/17 10:35:26;;;;;;;2.85;1.15;;;;;;;17.88;69.92;100129.66;1758604;81;21042;-80
2021/09/17 10:38:15;;;;;;;2.35;1.20;;;;;;;18.07;69.74;100123.23;1758862;81;21003;-80
2021/09/17 10:41:03;;;;;;;3.62;1.30;;;;;;;18.20;69.50;100133.86;1758077;81;22032;-79
2021/09/17 10:43:43;;;;;;;2.15;1.30;;;;;;;18.24;69.22;100121.56;1758479;81;21502;-80
2021/09/17 10:46:29;;;;;;;1.37;1.22;;;;;;;18.40;69.06;100129.03;1704911;84;21515;-79
2021/09/17 10:48:57;;;;;;;2.52;1.07;;;;;;;18.46;68.86;100121.92;1697191;84;21021;-79
2021/09/17 10:51:39;;;;;;;6.28;0.90;;;;;;;18.47;68.66;100126.27;1704920;84;21479;-80
2021/09/17 10:54:19;;;;;;;5.40;1.12;;;;;;;18.38;68.43;100127.10;1704153;84;21130;-80
2021/09/17 10:56:59;;;;;;;4.28;0.90;;;;;;;18.27;68.18;100129.21;1704874;84;21085;-79
2021/09/17 10:59:27;;;;;;;9.38;1.57;;;;;;;18.15;67.91;100125.63;1697117;84;21109;-80
2021/09/17 11:02:04;;;;;;;1.98;1.12;;;;;;;18.10;67.73;100121.95;1704812;84;21393;-80
2021/09/17 11:04:36;;;;;;;8.55;1.45;;;;;;;18.08;67.61;100120.84;1697075;84;21090;-80
2021/09/17 11:07:25;;;;;;;3.52;1.05;;;;;;;18.12;67.59;100126.06;1695089;84;21757;-80
2021/09/17 11:09:53;;;;;;;2.05;1.12;;;;;;;18.21;67.47;100122.02;1702127;84;21022;-80
2021/09/17 11:12:27;;;;;;;4.75;1.10;;;;;;;18.31;67.39;100125.01;1702649;84;21030;-80
2021/09/17 11:15:13;;;;;;;2.77;1.25;;;;;;;18.35;67.30;100122.16;1702412;84;21023;-80
2021/09/17 11:17:50;;;;;;;1.30;0.93;;;;;;;18.22;67.10;100127.73;1702480;84;21086;-80
2021/09/17 11:20:22;;;;;;;4.12;1.10;;;;;;;18.01;67.01;100129.53;1702332;84;21224;-80
2021/09/17 11:23:07;;;;;;;6.62;1.20;;;;;;;17.69;66.92;100141.49;1702524;84;20998;-80
2021/09/17 11:25:39;;;;;;;3.08;0.90;;;;;;;17.14;67.00;100145.84;1702429;84;21007;-80
2021/09/17 11:28:32;;;;;;;1.55;0.60;;;;;;;16.67;67.41;100139.95;1702447;84;21029;-80